sensor_id;sensor_type;location;lat;lon;timestamp;pressure;altitude;pressure_sealevel;temperature;humidity
40788;BME280;26497;52.494;7.546;2023-05-19T00:01:43;102139.03;;;12.43;69.00
40788;BME280;26497;52.494;7.546;2023-05-19T00:04:15;102124.88;;;12.41;69.36
40788;BME280;26497;52.494;7.546;2023-05-19T00:06:43;102139.25;;;12.57;69.09
40788;BME280;26497;52.494;7.546;2023-05-19T00:09:13;102138.25;;;12.49;69.18
40788;BME280;26497;52.494;7.546;2023-05-19T00:11:41;102135.75;;;12.58;69.43
40788;BME280;26497;52.494;7.546;2023-05-19T00:14:09;102133.91;;;12.54;69.47
40788;BME280;26497;52.494;7.546;2023-05-19T00:16:38;102132.91;;;12.46;69.76
40788;BME280;26497;52.494;7.546;2023-05-19T00:19:05;102129.50;;;12.54;69.53
40788;BME280;26497;52.494;7.546;2023-05-19T00:21:36;102136.56;;;12.54;69.43
40788;BME280;26497;52.494;7.546;2023-05-19T00:24:04;102128.53;;;12.48;69.53
40788;BME280;26497;52.494;7.546;2023-05-19T00:26:32;102132.03;;;12.48;69.69
40788;BME280;26497;52.494;7.546;2023-05-19T00:28:59;102126.72;;;12.45;69.80
40788;BME280;26497;52.494;7.546;2023-05-19T00:31:26;102136.38;;;12.43;70.29
40788;BME280;26497;52.494;7.546;2023-05-19T00:33:53;102129.41;;;12.48;70.56
40788;BME280;26497;52.494;7.546;2023-05-19T00:36:20;102127.66;;;12.49;70.33
40788;BME280;26497;52.494;7.546;2023-05-19T00:38:49;102126.03;;;12.57;70.19
40788;BME280;26497;52.494;7.546;2023-05-19T00:41:17;102126.88;;;12.56;69.65
40788;BME280;26497;52.494;7.546;2023-05-19T00:43:44;102120.59;;;12.48;70.02
40788;BME280;26497;52.494;7.546;2023-05-19T00:46:11;102127.63;;;12.47;69.76
40788;BME280;26497;52.494;7.546;2023-05-19T00:48:38;102126.75;;;12.47;69.98
40788;BME280;26497;52.494;7.546;2023-05-19T00:51:06;102123.28;;;12.51;70.07
40788;BME280;26497;52.494;7.546;2023-05-19T00:53:33;102118.81;;;12.47;69.92
40788;BME280;26497;52.494;7.546;2023-05-19T00:56:03;102119.63;;;12.44;69.91
40788;BME280;26497;52.494;7.546;2023-05-19T00:58:32;102112.47;;;12.37;70.01
40788;BME280;26497;52.494;7.546;2023-05-19T01:01:00;102113.28;;;12.31;70.20
40788;BME280;26497;52.494;7.546;2023-05-19T01:03:33;102099.19;;;12.32;70.13
40788;BME280;26497;52.494;7.546;2023-05-19T01:06:01;102111.41;;;12.24;70.11
40788;BME280;26497;52.494;7.546;2023-05-19T01:08:30;102104.47;;;12.34;69.85
40788;BME280;26497;52.494;7.546;2023-05-19T01:10:58;102104.38;;;12.28;70.33
40788;BME280;26497;52.494;7.546;2023-05-19T01:13:27;102103.53;;;12.29;70.44
40788;BME280;26497;52.494;7.546;2023-05-19T01:16:00;102098.19;;;12.24;70.34
40788;BME280;26497;52.494;7.546;2023-05-19T01:18:49;102102.56;;;12.22;70.52
40788;BME280;26497;52.494;7.546;2023-05-19T01:22:06;102101.78;;;12.29;70.26
40788;BME280;26497;52.494;7.546;2023-05-19T01:25:03;102099.81;;;12.17;70.10
40788;BME280;26497;52.494;7.546;2023-05-19T01:30:53;102100.72;;;12.18;70.65
40788;BME280;26497;52.494;7.546;2023-05-19T01:33:23;102105.16;;;12.19;70.61
40788;BME280;26497;52.494;7.546;2023-05-19T01:35:51;102102.47;;;12.16;70.58
40788;BME280;26497;52.494;7.546;2023-05-19T01:38:20;102093.69;;;12.20;70.62
40788;BME280;26497;52.494;7.546;2023-05-19T01:40:49;102093.69;;;12.20;70.57
40788;BME280;26497;52.494;7.546;2023-05-19T01:43:20;102095.44;;;12.18;70.47
40788;BME280;26497;52.494;7.546;2023-05-19T01:45:48;102097.13;;;12.14;70.61
40788;BME280;26497;52.494;7.546;2023-05-19T01:48:18;102091.69;;;12.03;71.08
40788;BME280;26497;52.494;7.546;2023-05-19T01:50:46;102101.41;;;12.06;70.92
40788;BME280;26497;52.494;7.546;2023-05-19T01:53:13;102099.63;;;12.05;71.46
40788;BME280;26497;52.494;7.546;2023-05-19T01:55:43;102099.59;;;12.03;70.99
40788;BME280;26497;52.494;7.546;2023-05-19T01:58:20;102103.00;;;11.98;71.16
40788;BME280;26497;52.494;7.546;2023-05-19T02:00:53;102097.56;;;11.88;71.20
40788;BME280;26497;52.494;7.546;2023-05-19T02:03:40;102095.00;;;11.94;71.18
40788;BME280;26497;52.494;7.546;2023-05-19T02:06:21;102105.63;;;11.98;71.00
40788;BME280;26497;52.494;7.546;2023-05-19T02:08:56;102095.19;;;12.02;70.71
40788;BME280;26497;52.494;7.546;2023-05-19T02:11:30;102103.84;;;11.97;70.88
40788;BME280;26497;52.494;7.546;2023-05-19T02:14:04;102097.66;;;11.94;70.63
40788;BME280;26497;52.494;7.546;2023-05-19T02:16:35;102104.47;;;11.80;70.50
40788;BME280;26497;52.494;7.546;2023-05-19T02:19:05;102101.84;;;11.82;70.68
40788;BME280;26497;52.494;7.546;2023-05-19T02:21:34;102106.25;;;11.81;70.62
40788;BME280;26497;52.494;7.546;2023-05-19T02:24:02;102099.34;;;11.89;70.38
40788;BME280;26497;52.494;7.546;2023-05-19T02:26:29;102112.63;;;11.94;70.10
40788;BME280;26497;52.494;7.546;2023-05-19T02:28:56;102105.56;;;11.91;70.27
40788;BME280;26497;52.494;7.546;2023-05-19T02:31:23;102114.19;;;11.83;70.21
40788;BME280;26497;52.494;7.546;2023-05-19T02:33:51;102110.59;;;11.77;70.05
40788;BME280;26497;52.494;7.546;2023-05-19T02:36:19;102105.22;;;11.73;70.06
40788;BME280;26497;52.494;7.546;2023-05-19T02:38:46;102104.31;;;11.72;70.09
40788;BME280;26497;52.494;7.546;2023-05-19T02:41:13;102101.56;;;11.64;70.11
40788;BME280;26497;52.494;7.546;2023-05-19T02:43:40;102096.41;;;11.72;69.91
40788;BME280;26497;52.494;7.546;2023-05-19T02:46:08;102093.75;;;11.72;69.52
40788;BME280;26497;52.494;7.546;2023-05-19T02:48:35;102101.56;;;11.66;69.50
40788;BME280;26497;52.494;7.546;2023-05-19T02:51:03;102103.31;;;11.64;69.51
40788;BME280;26497;52.494;7.546;2023-05-19T02:53:31;102089.78;;;11.47;70.01
40788;BME280;26497;52.494;7.546;2023-05-19T02:55:59;102092.53;;;11.53;69.59
40788;BME280;26497;52.494;7.546;2023-05-19T02:58:26;102082.78;;;11.50;69.80
40788;BME280;26497;52.494;7.546;2023-05-19T03:00:54;102081.00;;;11.49;69.60
40788;BME280;26497;52.494;7.546;2023-05-19T03:03:21;102077.50;;;11.49;69.69
40788;BME280;26497;52.494;7.546;2023-05-19T03:05:52;102072.09;;;11.43;69.82
40788;BME280;26497;52.494;7.546;2023-05-19T03:08:19;102071.31;;;11.48;69.65
40788;BME280;26497;52.494;7.546;2023-05-19T03:10:48;102074.06;;;11.53;69.40
40788;BME280;26497;52.494;7.546;2023-05-19T03:13:15;102069.47;;;11.44;69.47
40788;BME280;26497;52.494;7.546;2023-05-19T03:15:42;102079.91;;;11.38;69.37
40788;BME280;26497;52.494;7.546;2023-05-19T03:18:09;102077.97;;;11.28;69.55
40788;BME280;26497;52.494;7.546;2023-05-19T03:20:37;102076.09;;;11.22;69.62
40788;BME280;26497;52.494;7.546;2023-05-19T03:23:07;102073.41;;;11.19;70.04
40788;BME280;26497;52.494;7.546;2023-05-19T03:25:35;102078.69;;;11.19;69.56
40788;BME280;26497;52.494;7.546;2023-05-19T03:28:04;102081.38;;;11.20;69.29
40788;BME280;26497;52.494;7.546;2023-05-19T03:30:31;102081.22;;;11.13;69.48
40788;BME280;26497;52.494;7.546;2023-05-19T03:32:58;102078.63;;;11.16;69.32
40788;BME280;26497;52.494;7.546;2023-05-19T03:35:26;102076.97;;;11.19;69.20
40788;BME280;26497;52.494;7.546;2023-05-19T03:37:53;102076.91;;;11.18;69.29
40788;BME280;26497;52.494;7.546;2023-05-19T03:40:20;102075.13;;;11.17;69.51
40788;BME280;26497;52.494;7.546;2023-05-19T03:42:48;102072.50;;;11.17;69.23
40788;BME280;26497;52.494;7.546;2023-05-19T03:45:17;102079.59;;;11.21;69.11
40788;BME280;26497;52.494;7.546;2023-05-19T03:47:44;102080.59;;;11.26;69.08
40788;BME280;26497;52.494;7.546;2023-05-19T03:50:12;102084.03;;;11.22;69.09
40788;BME280;26497;52.494;7.546;2023-05-19T03:52:39;102083.31;;;11.31;68.93
40788;BME280;26497;52.494;7.546;2023-05-19T03:55:11;102082.63;;;11.41;68.43
40788;BME280;26497;52.494;7.546;2023-05-19T03:57:39;102093.06;;;11.35;68.95
40788;BME280;26497;52.494;7.546;2023-05-19T04:00:09;102084.28;;;11.34;69.15
40788;BME280;26497;52.494;7.546;2023-05-19T04:02:38;102086.00;;;11.34;69.26
40788;BME280;26497;52.494;7.546;2023-05-19T04:05:06;102086.97;;;11.38;69.65
40788;BME280;26497;52.494;7.546;2023-05-19T04:07:34;102086.25;;;11.46;69.45
40788;BME280;26497;52.494;7.546;2023-05-19T04:10:04;102091.63;;;11.51;69.71
40788;BME280;26497;52.494;7.546;2023-05-19T04:12:33;102091.59;;;11.49;69.94
40788;BME280;26497;52.494;7.546;2023-05-19T04:15:01;102091.59;;;11.49;70.06
40788;BME280;26497;52.494;7.546;2023-05-19T04:17:28;102093.69;;;11.69;70.34
40788;BME280;26497;52.494;7.546;2023-05-19T04:19:56;102096.09;;;12.04;71.96
40788;BME280;26497;52.494;7.546;2023-05-19T04:22:24;102097.84;;;12.62;73.25
40788;BME280;26497;52.494;7.546;2023-05-19T04:24:51;102092.38;;;13.19;74.03
40788;BME280;26497;52.494;7.546;2023-05-19T04:27:18;102093.94;;;13.82;73.05
40788;BME280;26497;52.494;7.546;2023-05-19T04:29:46;102087.19;;;14.26;70.53
40788;BME280;26497;52.494;7.546;2023-05-19T04:32:14;102083.91;;;14.64;69.80
40788;BME280;26497;52.494;7.546;2023-05-19T04:34:43;102091.22;;;15.10;69.71
40788;BME280;26497;52.494;7.546;2023-05-19T04:37:12;102086.00;;;15.61;67.39
40788;BME280;26497;52.494;7.546;2023-05-19T04:39:41;102089.59;;;16.16;66.75
40788;BME280;26497;52.494;7.546;2023-05-19T04:42:10;102089.47;;;16.71;66.28
40788;BME280;26497;52.494;7.546;2023-05-19T04:44:38;102083.09;;;17.21;63.50
40788;BME280;26497;52.494;7.546;2023-05-19T04:47:06;102091.63;;;17.72;61.40
40788;BME280;26497;52.494;7.546;2023-05-19T04:49:34;102084.13;;;18.22;60.27
40788;BME280;26497;52.494;7.546;2023-05-19T04:52:06;102081.59;;;18.88;58.19
40788;BME280;26497;52.494;7.546;2023-05-19T04:54:38;102085.25;;;19.48;54.77
40788;BME280;26497;52.494;7.546;2023-05-19T04:57:06;102082.63;;;20.01;52.54
40788;BME280;26497;52.494;7.546;2023-05-19T04:59:35;102085.22;;;20.54;49.33
40788;BME280;26497;52.494;7.546;2023-05-19T05:02:02;102085.13;;;21.04;47.91
40788;BME280;26497;52.494;7.546;2023-05-19T05:04:30;102082.06;;;21.21;45.43
40788;BME280;26497;52.494;7.546;2023-05-19T05:06:57;102081.66;;;21.39;43.45
40788;BME280;26497;52.494;7.546;2023-05-19T05:09:24;102078.94;;;21.79;45.05
40788;BME280;26497;52.494;7.546;2023-05-19T05:11:54;102080.72;;;22.15;43.07
40788;BME280;26497;52.494;7.546;2023-05-19T05:14:22;102089.34;;;22.61;43.28
40788;BME280;26497;52.494;7.546;2023-05-19T05:16:50;102080.59;;;22.85;41.35
40788;BME280;26497;52.494;7.546;2023-05-19T05:19:18;102076.28;;;23.09;40.47
40788;BME280;26497;52.494;7.546;2023-05-19T05:21:47;102084.09;;;23.18;38.76
40788;BME280;26497;52.494;7.546;2023-05-19T05:24:16;102082.69;;;23.35;37.13
40788;BME280;26497;52.494;7.546;2023-05-19T05:26:44;102080.53;;;23.46;37.21
40788;BME280;26497;52.494;7.546;2023-05-19T05:29:12;102074.13;;;23.77;36.80
40788;BME280;26497;52.494;7.546;2023-05-19T05:31:39;102082.84;;;24.12;37.07
40788;BME280;26497;52.494;7.546;2023-05-19T05:34:06;102077.91;;;24.51;36.32
40788;BME280;26497;52.494;7.546;2023-05-19T05:36:33;102079.78;;;24.96;34.63
40788;BME280;26497;52.494;7.546;2023-05-19T05:39:01;102068.28;;;24.91;33.00
40788;BME280;26497;52.494;7.546;2023-05-19T05:41:29;102082.25;;;25.02;32.98
40788;BME280;26497;52.494;7.546;2023-05-19T05:43:59;102069.28;;;25.35;32.23
40788;BME280;26497;52.494;7.546;2023-05-19T05:46:28;102071.75;;;25.63;30.69
40788;BME280;26497;52.494;7.546;2023-05-19T05:48:56;102064.69;;;25.60;30.38
40788;BME280;26497;52.494;7.546;2023-05-19T05:51:24;102055.88;;;25.55;30.25
40788;BME280;26497;52.494;7.546;2023-05-19T05:53:53;102064.84;;;25.56;30.16
40788;BME280;26497;52.494;7.546;2023-05-19T05:56:21;102072.00;;;25.79;30.33
40788;BME280;26497;52.494;7.546;2023-05-19T05:58:49;102073.34;;;26.10;29.79
40788;BME280;26497;52.494;7.546;2023-05-19T06:01:16;102073.19;;;26.35;28.86
40788;BME280;26497;52.494;7.546;2023-05-19T06:03:45;102073.38;;;26.71;28.99
40788;BME280;26497;52.494;7.546;2023-05-19T06:06:12;102076.28;;;27.06;28.34
40788;BME280;26497;52.494;7.546;2023-05-19T06:08:39;102074.94;;;27.53;28.10
40788;BME280;26497;52.494;7.546;2023-05-19T06:11:07;102081.50;;;27.84;26.98
40788;BME280;26497;52.494;7.546;2023-05-19T06:13:34;102078.88;;;28.18;26.86
40788;BME280;26497;52.494;7.546;2023-05-19T06:16:02;102078.47;;;28.43;26.50
40788;BME280;26497;52.494;7.546;2023-05-19T06:18:29;102070.38;;;28.75;26.14
40788;BME280;26497;52.494;7.546;2023-05-19T06:20:57;102080.38;;;28.75;25.24
40788;BME280;26497;52.494;7.546;2023-05-19T06:23:25;102070.47;;;28.74;25.77
40788;BME280;26497;52.494;7.546;2023-05-19T06:25:53;102068.16;;;28.83;26.09
40788;BME280;26497;52.494;7.546;2023-05-19T06:28:21;102074.06;;;29.08;25.33
40788;BME280;26497;52.494;7.546;2023-05-19T06:30:48;102066.31;;;29.48;25.49
40788;BME280;26497;52.494;7.546;2023-05-19T06:33:15;102068.84;;;29.67;24.72
40788;BME280;26497;52.494;7.546;2023-05-19T06:35:42;102072.84;;;29.76;24.34
40788;BME280;26497;52.494;7.546;2023-05-19T06:38:11;102063.16;;;29.56;24.62
40788;BME280;26497;52.494;7.546;2023-05-19T06:40:38;102072.81;;;29.46;24.22
40788;BME280;26497;52.494;7.546;2023-05-19T06:43:05;102072.28;;;29.39;24.65
40788;BME280;26497;52.494;7.546;2023-05-19T06:45:32;102072.81;;;29.46;25.10
40788;BME280;26497;52.494;7.546;2023-05-19T06:47:59;102071.03;;;29.28;24.26
40788;BME280;26497;52.494;7.546;2023-05-19T06:50:27;102066.50;;;29.29;24.65
40788;BME280;26497;52.494;7.546;2023-05-19T06:52:54;102065.69;;;29.59;24.82
40788;BME280;26497;52.494;7.546;2023-05-19T06:55:23;102060.44;;;29.56;23.91
40788;BME280;26497;52.494;7.546;2023-05-19T06:57:50;102062.25;;;29.71;23.23
40788;BME280;26497;52.494;7.546;2023-05-19T07:00:18;102065.28;;;29.81;23.10
40788;BME280;26497;52.494;7.546;2023-05-19T07:02:46;102059.47;;;30.18;23.22
40788;BME280;26497;52.494;7.546;2023-05-19T07:05:13;102061.06;;;30.80;22.92
40788;BME280;26497;52.494;7.546;2023-05-19T07:07:40;102057.69;;;31.04;21.66
40788;BME280;26497;52.494;7.546;2023-05-19T07:10:08;102058.34;;;31.50;21.19
40788;BME280;26497;52.494;7.546;2023-05-19T07:12:37;102064.28;;;32.10;20.50
40788;BME280;26497;52.494;7.546;2023-05-19T07:15:05;102059.56;;;32.25;20.08
40788;BME280;26497;52.494;7.546;2023-05-19T07:17:33;102063.19;;;31.99;20.56
40788;BME280;26497;52.494;7.546;2023-05-19T07:20:00;102066.34;;;32.06;20.44
40788;BME280;26497;52.494;7.546;2023-05-19T07:22:27;102060.47;;;32.25;20.04
40788;BME280;26497;52.494;7.546;2023-05-19T07:24:54;102058.84;;;32.35;20.55
40788;BME280;26497;52.494;7.546;2023-05-19T07:27:22;102064.81;;;32.28;20.81
40788;BME280;26497;52.494;7.546;2023-05-19T07:29:51;102054.69;;;32.17;20.75
40788;BME280;26497;52.494;7.546;2023-05-19T07:32:18;102050.28;;;31.88;21.48
40788;BME280;26497;52.494;7.546;2023-05-19T07:34:45;102061.75;;;32.06;19.67
40788;BME280;26497;52.494;7.546;2023-05-19T07:37:12;102058.41;;;32.42;19.84
40788;BME280;26497;52.494;7.546;2023-05-19T07:39:40;102059.00;;;32.97;19.56
40788;BME280;26497;52.494;7.546;2023-05-19T07:42:07;102051.63;;;33.11;18.73
40788;BME280;26497;52.494;7.546;2023-05-19T07:44:34;102058.22;;;32.95;19.79
40788;BME280;26497;52.494;7.546;2023-05-19T07:47:03;102062.06;;;33.17;18.53
40788;BME280;26497;52.494;7.546;2023-05-19T07:49:30;102055.56;;;33.06;19.22
40788;BME280;26497;52.494;7.546;2023-05-19T07:51:57;102059.91;;;33.46;19.18
40788;BME280;26497;52.494;7.546;2023-05-19T07:54:25;102052.31;;;33.74;18.66
40788;BME280;26497;52.494;7.546;2023-05-19T07:56:52;102052.78;;;33.68;18.51
40788;BME280;26497;52.494;7.546;2023-05-19T07:59:19;102048.50;;;33.52;18.73
40788;BME280;26497;52.494;7.546;2023-05-19T08:01:46;102055.53;;;33.44;18.59
40788;BME280;26497;52.494;7.546;2023-05-19T08:04:14;102043.34;;;33.23;19.00
40788;BME280;26497;52.494;7.546;2023-05-19T08:06:42;102048.03;;;33.59;19.15
40788;BME280;26497;52.494;7.546;2023-05-19T08:09:09;102043.41;;;33.95;18.69
40788;BME280;26497;52.494;7.546;2023-05-19T08:11:37;102037.75;;;34.32;18.72
40788;BME280;26497;52.494;7.546;2023-05-19T08:14:04;102034.25;;;34.19;18.46
40788;BME280;26497;52.494;7.546;2023-05-19T08:16:31;102040.97;;;34.15;18.32
40788;BME280;26497;52.494;7.546;2023-05-19T08:18:58;102032.75;;;34.26;18.18
40788;BME280;26497;52.494;7.546;2023-05-19T08:21:30;102024.44;;;34.39;18.45
40788;BME280;26497;52.494;7.546;2023-05-19T08:23:59;102030.91;;;34.61;18.22
40788;BME280;26497;52.494;7.546;2023-05-19T08:26:26;102029.31;;;34.58;17.32
40788;BME280;26497;52.494;7.546;2023-05-19T08:28:53;102039.94;;;34.04;18.03
40788;BME280;26497;52.494;7.546;2023-05-19T08:31:21;102031.53;;;33.72;18.39
40788;BME280;26497;52.494;7.546;2023-05-19T08:33:49;102026.69;;;33.87;18.28
40788;BME280;26497;52.494;7.546;2023-05-19T08:36:17;102028.19;;;33.91;18.29
40788;BME280;26497;52.494;7.546;2023-05-19T08:38:45;102021.06;;;34.13;17.76
40788;BME280;26497;52.494;7.546;2023-05-19T08:41:12;102013.59;;;34.26;17.57
40788;BME280;26497;52.494;7.546;2023-05-19T08:43:40;102014.72;;;34.23;17.56
40788;BME280;26497;52.494;7.546;2023-05-19T08:46:12;102014.13;;;34.54;17.31
40788;BME280;26497;52.494;7.546;2023-05-19T08:48:42;102002.41;;;34.75;16.96
40788;BME280;26497;52.494;7.546;2023-05-19T08:51:24;102003.28;;;34.41;17.21
40788;BME280;26497;52.494;7.546;2023-05-19T08:53:59;101994.56;;;34.24;16.29
40788;BME280;26497;52.494;7.546;2023-05-19T08:56:30;102004.88;;;34.32;16.69
40788;BME280;26497;52.494;7.546;2023-05-19T08:58:57;101995.06;;;34.52;17.54
40788;BME280;26497;52.494;7.546;2023-05-19T09:01:26;101988.09;;;34.48;17.00
40788;BME280;26497;52.494;7.546;2023-05-19T09:03:55;101988.78;;;34.84;16.18
40788;BME280;26497;52.494;7.546;2023-05-19T09:06:22;101995.25;;;35.27;17.47
40788;BME280;26497;52.494;7.546;2023-05-19T09:08:50;101990.44;;;35.20;16.30
40788;BME280;26497;52.494;7.546;2023-05-19T09:11:19;101996.91;;;34.75;17.09
40788;BME280;26497;52.494;7.546;2023-05-19T09:13:47;101990.47;;;34.64;16.81
40788;BME280;26497;52.494;7.546;2023-05-19T09:16:14;101998.19;;;35.14;15.72
40788;BME280;26497;52.494;7.546;2023-05-19T09:18:53;101992.66;;;35.58;17.14
40788;BME280;26497;52.494;7.546;2023-05-19T09:21:27;101992.75;;;36.21;15.69
40788;BME280;26497;52.494;7.546;2023-05-19T09:23:56;101988.91;;;36.43;16.68
40788;BME280;26497;52.494;7.546;2023-05-19T09:26:35;101987.09;;;35.49;15.38
40788;BME280;26497;52.494;7.546;2023-05-19T09:29:10;101987.38;;;34.35;17.44
40788;BME280;26497;52.494;7.546;2023-05-19T09:31:38;101973.25;;;34.74;15.92
40788;BME280;26497;52.494;7.546;2023-05-19T09:34:11;101978.38;;;35.43;16.93
40788;BME280;26497;52.494;7.546;2023-05-19T09:36:39;101974.63;;;36.08;15.74
40788;BME280;26497;52.494;7.546;2023-05-19T09:39:12;101968.63;;;36.24;15.08
40788;BME280;26497;52.494;7.546;2023-05-19T09:41:42;101975.38;;;36.51;15.45
40788;BME280;26497;52.494;7.546;2023-05-19T09:44:12;101969.41;;;36.46;15.67
40788;BME280;26497;52.494;7.546;2023-05-19T09:46:47;101968.00;;;35.90;15.27
40788;BME280;26497;52.494;7.546;2023-05-19T09:49:19;101971.06;;;35.33;15.38
40788;BME280;26497;52.494;7.546;2023-05-19T09:51:52;101963.28;;;33.81;17.62
40788;BME280;26497;52.494;7.546;2023-05-19T09:54:20;101966.34;;;32.57;18.20
40788;BME280;26497;52.494;7.546;2023-05-19T09:56:56;101963.31;;;33.10;17.99
40788;BME280;26497;52.494;7.546;2023-05-19T09:59:25;101962.69;;;33.18;18.27
40788;BME280;26497;52.494;7.546;2023-05-19T10:01:56;101963.47;;;33.20;17.99
40788;BME280;26497;52.494;7.546;2023-05-19T10:04:25;101968.94;;;32.58;18.26
40788;BME280;26497;52.494;7.546;2023-05-19T10:06:54;101960.47;;;31.72;20.00
40788;BME280;26497;52.494;7.546;2023-05-19T10:09:29;101965.97;;;31.98;19.26
40788;BME280;26497;52.494;7.546;2023-05-19T10:11:58;101965.94;;;32.37;18.43
40788;BME280;26497;52.494;7.546;2023-05-19T10:14:26;101976.97;;;32.86;18.35
40788;BME280;26497;52.494;7.546;2023-05-19T10:16:56;101962.31;;;32.24;19.29
40788;BME280;26497;52.494;7.546;2023-05-19T10:19:25;101965.72;;;31.22;18.86
40788;BME280;26497;52.494;7.546;2023-05-19T10:21:53;101959.59;;;31.18;19.79
40788;BME280;26497;52.494;7.546;2023-05-19T10:24:20;101957.66;;;32.39;19.27
40788;BME280;26497;52.494;7.546;2023-05-19T10:26:54;101947.38;;;33.75;17.35
40788;BME280;26497;52.494;7.546;2023-05-19T10:29:27;101933.22;;;34.38;17.74
40788;BME280;26497;52.494;7.546;2023-05-19T10:31:59;101936.78;;;34.73;17.04
40788;BME280;26497;52.494;7.546;2023-05-19T10:34:57;101942.00;;;33.27;18.81
40788;BME280;26497;52.494;7.546;2023-05-19T10:37:40;101942.88;;;33.27;19.51
40788;BME280;26497;52.494;7.546;2023-05-19T10:40:20;101923.28;;;34.26;18.53
40788;BME280;26497;52.494;7.546;2023-05-19T10:43:04;101924.66;;;34.98;16.62
40788;BME280;26497;52.494;7.546;2023-05-19T10:45:52;101929.38;;;35.50;16.62
40788;BME280;26497;52.494;7.546;2023-05-19T10:48:20;101923.25;;;35.25;16.71
40788;BME280;26497;52.494;7.546;2023-05-19T10:50:47;101923.78;;;33.97;17.69
40788;BME280;26497;52.494;7.546;2023-05-19T10:53:16;101929.09;;;32.80;18.77
40788;BME280;26497;52.494;7.546;2023-05-19T10:55:49;101921.34;;;33.11;18.39
40788;BME280;26497;52.494;7.546;2023-05-19T10:58:38;101914.81;;;34.29;16.25
40788;BME280;26497;52.494;7.546;2023-05-19T11:01:12;101918.19;;;35.21;17.16
40788;BME280;26497;52.494;7.546;2023-05-19T11:03:47;101906.34;;;35.41;15.21
40788;BME280;26497;52.494;7.546;2023-05-19T11:06:24;101912.88;;;36.34;15.60
40788;BME280;26497;52.494;7.546;2023-05-19T11:08:54;101914.97;;;36.61;14.94
40788;BME280;26497;52.494;7.546;2023-05-19T11:11:23;101906.59;;;37.31;15.75
40788;BME280;26497;52.494;7.546;2023-05-19T11:13:52;101914.53;;;37.44;14.93
40788;BME280;26497;52.494;7.546;2023-05-19T11:16:26;101910.66;;;37.47;14.17
40788;BME280;26497;52.494;7.546;2023-05-19T11:18:55;101898.50;;;37.20;13.97
40788;BME280;26497;52.494;7.546;2023-05-19T11:21:22;101912.22;;;36.10;15.07
40788;BME280;26497;52.494;7.546;2023-05-19T11:23:50;101908.09;;;34.22;16.79
40788;BME280;26497;52.494;7.546;2023-05-19T11:26:39;101915.59;;;33.03;18.54
40788;BME280;26497;52.494;7.546;2023-05-19T11:29:07;101906.50;;;33.38;17.20
40788;BME280;26497;52.494;7.546;2023-05-19T11:31:37;101904.59;;;33.86;16.55
40788;BME280;26497;52.494;7.546;2023-05-19T11:34:05;101894.59;;;34.64;15.75
40788;BME280;26497;52.494;7.546;2023-05-19T11:36:39;101896.19;;;35.11;15.06
40788;BME280;26497;52.494;7.546;2023-05-19T11:39:10;101891.63;;;35.64;15.31
40788;BME280;26497;52.494;7.546;2023-05-19T11:41:38;101895.47;;;35.82;15.39
40788;BME280;26497;52.494;7.546;2023-05-19T11:44:09;101895.22;;;35.43;16.53
40788;BME280;26497;52.494;7.546;2023-05-19T11:46:44;101896.31;;;35.31;17.11
40788;BME280;26497;52.494;7.546;2023-05-19T11:49:12;101885.22;;;35.84;15.55
40788;BME280;26497;52.494;7.546;2023-05-19T11:51:43;101885.81;;;36.19;15.97
40788;BME280;26497;52.494;7.546;2023-05-19T11:54:11;101888.31;;;36.32;14.63
40788;BME280;26497;52.494;7.546;2023-05-19T11:56:39;101887.88;;;36.27;15.36
40788;BME280;26497;52.494;7.546;2023-05-19T11:59:08;101889.59;;;36.48;15.42
40788;BME280;26497;52.494;7.546;2023-05-19T12:01:38;101890.53;;;36.78;14.54
40788;BME280;26497;52.494;7.546;2023-05-19T12:04:08;101885.06;;;37.17;13.91
40788;BME280;26497;52.494;7.546;2023-05-19T12:06:36;101882.22;;;36.19;15.10
40788;BME280;26497;52.494;7.546;2023-05-19T12:09:04;101885.59;;;35.70;15.26
40788;BME280;26497;52.494;7.546;2023-05-19T12:11:33;101885.06;;;35.86;17.76
40788;BME280;26497;52.494;7.546;2023-05-19T12:14:01;101890.28;;;36.20;15.37
40788;BME280;26497;52.494;7.546;2023-05-19T12:16:33;101881.44;;;37.26;16.14
40788;BME280;26497;52.494;7.546;2023-05-19T12:19:04;101887.09;;;36.66;15.10
40788;BME280;26497;52.494;7.546;2023-05-19T12:21:32;101879.41;;;35.47;15.97
40788;BME280;26497;52.494;7.546;2023-05-19T12:24:00;101876.53;;;35.79;15.21
40788;BME280;26497;52.494;7.546;2023-05-19T12:26:28;101877.19;;;35.93;15.85
40788;BME280;26497;52.494;7.546;2023-05-19T12:28:55;101873.97;;;35.35;17.03
40788;BME280;26497;52.494;7.546;2023-05-19T12:31:28;101875.72;;;34.38;16.44
40788;BME280;26497;52.494;7.546;2023-05-19T12:33:56;101872.66;;;34.32;16.87
40788;BME280;26497;52.494;7.546;2023-05-19T12:36:25;101874.09;;;34.47;16.50
40788;BME280;26497;52.494;7.546;2023-05-19T12:38:54;101865.94;;;35.22;16.51
40788;BME280;26497;52.494;7.546;2023-05-19T12:41:23;101866.75;;;35.86;15.87
40788;BME280;26497;52.494;7.546;2023-05-19T12:43:53;101876.94;;;36.06;15.16
40788;BME280;26497;52.494;7.546;2023-05-19T12:46:21;101870.78;;;34.76;15.99
40788;BME280;26497;52.494;7.546;2023-05-19T12:48:52;101870.53;;;32.84;17.38
40788;BME280;26497;52.494;7.546;2023-05-19T12:51:27;101865.75;;;31.10;19.54
40788;BME280;26497;52.494;7.546;2023-05-19T12:53:55;101869.59;;;30.38;19.87
40788;BME280;26497;52.494;7.546;2023-05-19T12:56:25;101867.13;;;31.43;20.17
40788;BME280;26497;52.494;7.546;2023-05-19T12:58:54;101863.94;;;32.75;18.06
40788;BME280;26497;52.494;7.546;2023-05-19T13:01:22;101856.09;;;33.88;17.94
40788;BME280;26497;52.494;7.546;2023-05-19T13:03:49;101849.16;;;34.94;17.15
40788;BME280;26497;52.494;7.546;2023-05-19T13:06:16;101852.00;;;35.78;15.75